Time;durP1;ratioP1;P1;durP2;ratioP2;P2;SDS_P1;SDS_P2;PMS_P1;PMS_P2;Temp;Humidity;BMP_temperature;BMP_pressure;BME280_temperature;BME280_humidity;BME280_pressure;Samples;Min_cycle;Max_cycle;Signal;HPM_P1;HPM_P2
2022/06/12 00:00:38;;;;;;;23.67;17.77;;;;;;;35.16;47.95;101223.50;4993815;28;20815;-72
2022/06/12 00:03:07;;;;;;;23.23;17.13;;;;;;;35.28;47.27;101210.47;4994969;28;20988;-71
2022/06/12 00:05:37;;;;;;;22.83;17.40;;;;;;;35.22;47.49;101211.59;4993539;28;20429;-71
2022/06/12 00:08:05;;;;;;;27.00;17.10;;;;;;;35.31;47.51;101207.25;4993646;28;20445;-73
2022/06/12 00:10:33;;;;;;;23.50;17.10;;;;;;;35.35;47.33;101205.56;4993584;28;20453;-72
2022/06/12 00:13:00;;;;;;;23.43;15.37;;;;;;;35.36;47.29;101200.97;4994934;28;20417;-74
2022/06/12 00:15:28;;;;;;;20.90;15.87;;;;;;;35.46;47.08;101196.34;4993415;28;20421;-73
2022/06/12 00:17:55;;;;;;;24.90;18.53;;;;;;;35.28;47.33;101195.09;4993019;28;20481;-73
2022/06/12 00:20:23;;;;;;;23.43;17.30;;;;;;;35.26;47.89;101201.88;4993603;28;20421;-72
2022/06/12 00:22:51;;;;;;;24.07;16.87;;;;;;;35.07;48.16;101193.63;4993477;28;20489;-71
2022/06/12 00:25:18;;;;;;;26.77;19.70;;;;;;;35.05;48.33;101184.19;4993095;28;20438;-72
2022/06/12 00:27:45;;;;;;;29.07;21.03;;;;;;;35.03;48.18;101184.47;4993208;28;20525;-71
2022/06/12 00:30:14;;;;;;;25.53;19.50;;;;;;;34.95;48.31;101191.25;4994654;28;20433;-73
2022/06/12 00:32:41;;;;;;;29.23;19.80;;;;;;;34.79;49.02;101186.97;4993011;28;20481;-73
2022/06/12 00:35:09;;;;;;;23.03;16.00;;;;;;;34.86;49.14;101175.91;4992755;28;21022;-74
2022/06/12 00:37:37;;;;;;;24.73;17.50;;;;;;;35.05;48.32;101170.72;4992959;28;20968;-74
2022/06/12 00:40:05;;;;;;;28.13;18.63;;;;;;;34.99;48.58;101165.38;4993158;28;20453;-74
2022/06/12 00:42:42;;;;;;;28.50;16.67;;;;;;;35.05;48.54;101159.94;4992896;28;21402;-73
2022/06/12 00:45:32;;;;;;;28.70;17.63;;;;;;;35.02;48.59;101155.09;4992856;28;21072;-73
2022/06/12 00:48:06;;;;;;;22.77;14.37;;;;;;;35.11;48.22;101150.72;4993146;28;20424;-73
2022/06/12 00:50:34;;;;;;;17.43;14.83;;;;;;;34.98;48.30;101149.44;4993011;28;20490;-73
2022/06/12 00:53:00;;;;;;;17.77;16.27;;;;;;;34.93;48.87;101155.69;4993007;28;20445;-74
2022/06/12 00:55:31;;;;;;;34.20;16.87;;;;;;;34.98;49.03;101152.94;4994014;28;20417;-73
2022/06/12 00:58:07;;;;;;;22.37;15.93;;;;;;;35.14;48.37;101155.56;4992731;28;20425;-74
2022/06/12 01:00:34;;;;;;;24.77;19.57;;;;;;;35.17;48.11;101149.59;4992647;28;20882;-73
2022/06/12 01:03:01;;;;;;;24.97;17.60;;;;;;;35.00;48.73;101147.31;4992759;28;20504;-73
2022/06/12 01:08:15;;;;;;;26.30;19.10;;;;;;;34.91;48.99;101141.66;4993836;28;20392;-73
2022/06/12 01:10:45;;;;;;;31.47;19.17;;;;;;;35.09;48.72;101142.13;4992656;28;20972;-74
2022/06/12 01:13:17;;;;;;;30.70;20.80;;;;;;;35.05;48.38;101139.19;4992186;28;20425;-74
2022/06/12 01:15:48;;;;;;;31.90;20.70;;;;;;;34.80;48.75;101129.31;4992255;28;20428;-74
2022/06/12 01:18:18;;;;;;;27.60;22.27;;;;;;;34.79;49.17;101126.91;4992333;28;20417;-73
2022/06/12 01:20:53;;;;;;;21.23;17.27;;;;;;;34.70;49.38;101132.06;4993659;28;20441;-73
2022/06/12 01:23:30;;;;;;;28.97;21.00;;;;;;;34.97;48.68;101129.78;4992171;28;20467;-73
2022/06/12 01:26:17;;;;;;;26.93;19.40;;;;;;;34.93;48.62;101131.44;4995613;28;20412;-74
2022/06/12 01:28:46;;;;;;;27.60;20.70;;;;;;;35.02;48.17;101125.44;5012334;28;20426;-74
2022/06/12 01:31:44;;;;;;;34.03;20.47;;;;;;;34.90;48.81;101129.25;5011790;28;20429;-74
2022/06/12 01:34:22;;;;;;;26.77;17.67;;;;;;;35.08;48.37;101141.31;5011429;28;20447;-74
2022/06/12 01:37:18;;;;;;;29.70;20.23;;;;;;;34.92;49.12;101132.50;5011852;28;20427;-73
2022/06/12 01:39:53;;;;;;;32.90;21.83;;;;;;;34.83;48.90;101136.84;5011316;28;20455;-72
2022/06/12 01:42:29;;;;;;;28.37;17.83;;;;;;;34.94;48.85;101134.94;5012872;28;21013;-72
2022/06/12 01:45:29;;;;;;;23.20;16.40;;;;;;;35.11;48.33;101129.97;5011541;28;20443;-72
2022/06/12 01:48:22;;;;;;;33.30;21.53;;;;;;;34.88;48.71;101134.13;5011123;28;20456;-72
2022/06/12 01:50:56;;;;;;;25.20;19.60;;;;;;;34.93;48.64;101133.34;5012750;28;20401;-72
2022/06/12 01:53:39;;;;;;;36.27;25.03;;;;;;;34.84;48.41;101124.97;5010988;28;20412;-71
2022/06/12 01:56:15;;;;;;;34.47;27.80;;;;;;;34.84;48.61;101124.19;5011412;28;20483;-72
2022/06/12 01:59:14;;;;;;;38.23;29.90;;;;;;;34.66;48.95;101122.91;5011181;28;20420;-72
2022/06/12 02:01:51;;;;;;;38.33;28.00;;;;;;;34.63;49.13;101131.56;5011083;28;21007;-72
2022/06/12 02:04:30;;;;;;;34.90;26.80;;;;;;;34.80;48.79;101137.38;5011129;28;20427;-73
2022/06/12 02:07:09;;;;;;;31.77;24.47;;;;;;;34.93;48.09;101139.53;5011133;28;20932;-73
2022/06/12 02:09:59;;;;;;;32.73;22.67;;;;;;;34.79;48.56;101133.09;5011228;28;20971;-74
2022/06/12 02:15:36;;;;;;;27.50;21.23;;;;;;;34.71;49.12;101122.91;5012505;28;20776;-73
2022/06/12 02:18:25;;;;;;;27.10;17.97;;;;;;;34.85;48.42;101120.38;5010592;28;20502;-73
2022/06/12 02:21:08;;;;;;;29.90;20.40;;;;;;;34.67;48.75;101119.94;5012324;28;20397;-73
2022/06/12 02:23:51;;;;;;;31.73;19.80;;;;;;;34.80;48.87;101115.03;5010684;28;20459;-74
2022/06/12 02:26:23;;;;;;;29.30;19.47;;;;;;;34.98;48.52;101115.22;5010737;28;20421;-74
2022/06/12 02:28:55;;;;;;;38.60;20.07;;;;;;;34.92;48.43;101120.88;5010827;28;20420;-74
2022/06/12 02:31:31;;;;;;;28.77;20.10;;;;;;;35.08;47.89;101117.03;5010880;28;20419;-73
2022/06/12 02:34:02;;;;;;;22.53;17.40;;;;;;;35.05;47.97;101120.31;5010692;28;20408;-73
2022/06/12 02:36:40;;;;;;;28.03;18.80;;;;;;;34.98;48.17;101114.41;5010821;28;20413;-73
2022/06/12 02:39:32;;;;;;;35.97;23.80;;;;;;;34.81;48.40;101120.16;5010715;28;20408;-74
2022/06/12 02:42:03;;;;;;;35.50;26.17;;;;;;;34.67;48.74;101113.75;5010755;28;20455;-73
2022/06/12 02:44:42;;;;;;;32.83;26.17;;;;;;;34.60;49.06;101113.25;5010425;28;20451;-73
2022/06/12 02:47:23;;;;;;;43.43;33.03;;;;;;;34.39;49.37;101116.00;5010779;28;20416;-73
2022/06/12 02:49:50;;;;;;;47.80;30.47;;;;;;;34.48;49.33;101122.47;5010489;28;20420;-72
2022/06/12 02:52:25;;;;;;;43.37;29.77;;;;;;;34.47;49.28;101125.44;5010691;28;20413;-73
2022/06/12 02:55:19;;;;;;;48.87;32.60;;;;;;;34.32;49.67;101125.47;5010266;28;20416;-73
2022/06/12 02:58:16;;;;;;;48.47;34.80;;;;;;;34.38;49.60;101135.16;5010478;28;20405;-73
2022/06/12 03:00:58;;;;;;;52.40;35.20;;;;;;;34.35;49.55;101128.41;5011544;28;20420;-73
2022/06/12 03:03:40;;;;;;;50.10;32.77;;;;;;;34.34;49.50;101132.19;5010650;28;20515;-74
2022/06/12 03:06:06;;;;;;;42.40;35.00;;;;;;;34.34;49.55;101140.25;5014577;28;20455;-73
2022/06/12 03:08:46;;;;;;;48.33;30.47;;;;;;;34.27;49.68;101139.75;5015656;28;20444;-73
2022/06/12 03:11:28;;;;;;;42.07;26.67;;;;;;;34.34;49.57;101129.50;5014339;28;20419;-73
2022/06/12 03:13:56;;;;;;;38.90;25.63;;;;;;;34.21;49.76;101122.00;5015337;28;20430;-73
2022/06/12 03:16:27;;;;;;;36.10;22.90;;;;;;;34.21;49.83;101130.88;5014076;28;20582;-73
2022/06/12 03:19:11;;;;;;;43.73;25.63;;;;;;;34.27;49.48;101134.38;5014159;28;20476;-71
2022/06/12 03:22:01;;;;;;;26.67;22.20;;;;;;;34.25;49.96;101128.44;5014123;28;20448;-71
2022/06/12 03:24:48;;;;;;;30.87;24.40;;;;;;;34.13;50.10;101138.69;5014009;28;20873;-74
2022/06/12 03:27:23;;;;;;;35.57;22.03;;;;;;;34.23;49.77;101133.28;5014033;28;20428;-74
2022/06/12 03:30:06;;;;;;;29.87;20.00;;;;;;;34.40;49.20;101135.66;5013788;28;20955;-73
2022/06/12 03:33:10;;;;;;;31.73;18.83;;;;;;;34.56;49.03;101141.81;5013996;28;20475;-72
2022/06/12 03:35:42;;;;;;;25.03;16.27;;;;;;;34.84;48.78;101143.03;5013669;28;20424;-72
2022/06/12 03:38:26;;;;;;;31.33;18.03;;;;;;;34.94;48.23;101134.94;5014063;28;20459;-73
2022/06/12 03:41:13;;;;;;;24.57;17.00;;;;;;;34.98;48.12;101131.38;5013608;28;20474;-73
2022/06/12 03:43:51;;;;;;;33.70;19.53;;;;;;;34.75;48.86;101126.66;5013367;28;20911;-73
2022/06/12 03:46:22;;;;;;;34.33;21.63;;;;;;;34.82;48.26;101124.47;5013910;28;20507;-74
2022/06/12 03:49:31;;;;;;;25.10;17.47;;;;;;;34.82;48.74;101116.38;5013722;28;20420;-74
2022/06/12 03:52:19;;;;;;;26.00;17.17;;;;;;;34.87;48.43;101120.94;4996480;28;20424;-73
2022/06/12 03:54:50;;;;;;;23.17;16.00;;;;;;;34.97;48.23;101121.69;5013181;28;20914;-72
2022/06/12 04:00:34;;;;;;;24.53;19.20;;;;;;;35.10;47.97;101127.53;5014074;28;20855;-72
2022/06/12 04:03:13;;;;;;;30.87;22.57;;;;;;;35.15;47.95;101124.81;5012949;28;20480;-73
2022/06/12 04:06:02;;;;;;;37.23;21.67;;;;;;;35.08;47.79;101135.91;5013253;28;20436;-71
2022/06/12 04:08:36;;;;;;;34.03;24.90;;;;;;;35.10;47.70;101135.63;5013414;28;20447;-73
2022/06/12 04:11:03;;;;;;;39.53;29.87;;;;;;;35.08;48.07;101140.50;5013116;28;20490;-73
2022/06/12 04:13:30;;;;;;;37.63;35.10;;;;;;;35.15;47.77;101141.78;5012953;28;20444;-74
2022/06/12 04:16:02;;;;;;;39.13;33.37;;;;;;;35.19;47.94;101137.47;5013713;28;20419;-73
2022/06/12 04:18:30;;;;;;;46.87;38.37;;;;;;;35.19;47.88;101139.34;5013325;28;20420;-73
2022/06/12 04:20:56;;;;;;;38.63;29.50;;;;;;;35.07;48.11;101147.00;5012807;28;20463;-73
2022/06/12 04:23:25;;;;;;;41.97;31.37;;;;;;;35.11;48.04;101153.41;5014045;28;20906;-74
2022/06/12 04:25:56;;;;;;;31.57;26.23;;;;;;;35.12;47.61;101149.66;5013239;28;20432;-73
2022/06/12 04:28:36;;;;;;;31.93;30.37;;;;;;;34.95;48.31;101147.31;5012992;28;20428;-73
2022/06/12 04:31:15;;;;;;;41.13;31.73;;;;;;;34.94;48.23;101149.22;5012871;28;20431;-73
2022/06/12 04:33:44;;;;;;;43.30;28.07;;;;;;;34.97;48.40;101145.94;4996317;28;20429;-73
2022/06/12 04:36:11;;;;;;;30.87;23.07;;;;;;;34.93;48.50;101147.63;4993402;28;20949;-72
2022/06/12 04:38:38;;;;;;;27.70;23.07;;;;;;;34.78;48.42;101142.25;4993220;28;20893;-72
2022/06/12 04:41:05;;;;;;;47.43;25.53;;;;;;;34.76;48.75;101143.63;4993177;28;20418;-72
2022/06/12 04:43:31;;;;;;;35.93;25.00;;;;;;;34.71;49.02;101158.72;4992848;28;20523;-72
2022/06/12 04:45:58;;;;;;;38.73;25.60;;;;;;;34.77;49.12;101153.31;4993137;28;20512;-71
2022/06/12 04:48:37;;;;;;;29.37;26.13;;;;;;;34.78;48.74;101153.03;4993147;28;20428;-72
2022/06/12 04:51:05;;;;;;;46.57;28.73;;;;;;;34.77;48.73;101156.81;4992846;28;20914;-74
2022/06/12 04:53:32;;;;;;;36.50;24.37;;;;;;;34.76;49.15;101166.00;4992734;28;20547;-71
2022/06/12 04:55:58;;;;;;;43.83;28.90;;;;;;;34.71;48.78;101176.78;4992828;28;20940;-73
2022/06/12 04:58:25;;;;;;;42.57;33.67;;;;;;;34.61;49.24;101174.13;4992722;28;20487;-72
2022/06/12 05:00:51;;;;;;;43.03;30.70;;;;;;;34.45;49.38;101171.50;4992737;28;20511;-72
2022/06/12 05:03:17;;;;;;;45.43;27.60;;;;;;;34.45;49.73;101168.00;4992530;28;20966;-72
2022/06/12 05:05:44;;;;;;;43.30;29.40;;;;;;;34.39;49.59;101171.75;4992553;28;20511;-72
2022/06/12 05:08:10;;;;;;;41.00;26.33;;;;;;;34.35;50.00;101159.91;4994043;28;20925;-72
2022/06/12 05:10:37;;;;;;;41.60;28.70;;;;;;;34.38;49.60;101165.56;4992619;28;20540;-72
2022/06/12 05:13:03;;;;;;;30.87;23.53;;;;;;;34.47;49.88;101160.44;4992363;28;20541;-72
2022/06/12 05:15:30;;;;;;;38.80;25.47;;;;;;;34.52;49.54;101165.03;4992425;28;20949;-72
2022/06/12 05:17:56;;;;;;;36.20;24.77;;;;;;;34.50;49.27;101162.59;4992321;28;20520;-72
2022/06/12 05:20:26;;;;;;;38.10;23.87;;;;;;;34.42;49.37;101165.81;4992737;28;20436;-73
2022/06/12 05:22:53;;;;;;;30.67;21.27;;;;;;;34.43;49.83;101170.94;4993390;28;20473;-73
2022/06/12 05:25:19;;;;;;;31.00;23.10;;;;;;;34.71;49.27;101168.72;4992128;28;20941;-74
2022/06/12 05:27:47;;;;;;;46.83;24.93;;;;;;;34.90;48.71;101174.28;4991060;28;20453;-74
2022/06/12 05:30:17;;;;;;;29.83;20.50;;;;;;;35.03;48.26;101171.00;4992254;28;20460;-73
2022/06/12 05:32:45;;;;;;;28.03;20.63;;;;;;;35.15;47.88;101174.16;4992003;28;20508;-73
2022/06/12 05:35:12;;;;;;;31.20;18.93;;;;;;;35.12;47.71;101179.31;4992025;28;20511;-73
2022/06/12 05:37:38;;;;;;;30.97;20.07;;;;;;;35.05;47.88;101181.50;4992112;28;20484;-74
2022/06/12 05:40:10;;;;;;;35.60;23.60;;;;;;;34.84;48.49;101186.97;4993323;28;20945;-73
2022/06/12 05:42:39;;;;;;;31.63;21.27;;;;;;;34.98;47.85;101185.28;4993109;28;20453;-73
2022/06/12 05:45:08;;;;;;;28.47;20.67;;;;;;;35.14;47.98;101187.94;4993739;28;20515;-74
2022/06/12 05:47:35;;;;;;;30.00;21.83;;;;;;;35.23;47.67;101186.22;4990492;28;20487;-74
2022/06/12 05:50:01;;;;;;;34.37;25.50;;;;;;;35.30;47.39;101197.53;4990560;28;20418;-74
2022/06/12 05:52:27;;;;;;;36.40;25.87;;;;;;;35.18;47.28;101203.28;4990658;28;20433;-74
2022/06/12 05:54:53;;;;;;;38.17;27.40;;;;;;;34.82;48.64;101204.50;4990690;28;20980;-74
2022/06/12 05:57:19;;;;;;;41.67;28.57;;;;;;;34.76;48.36;101208.31;4990993;28;20933;-73
2022/06/12 05:59:45;;;;;;;36.63;26.50;;;;;;;34.70;48.71;101211.00;4990887;28;20420;-74
2022/06/12 06:02:11;;;;;;;31.53;27.10;;;;;;;34.51;48.80;101223.47;4991471;28;20465;-73
2022/06/12 06:04:37;;;;;;;32.20;22.87;;;;;;;34.33;49.27;101229.41;4991512;28;20432;-74
2022/06/12 06:07:03;;;;;;;32.13;20.20;;;;;;;34.63;49.05;101228.56;4991604;28;20429;-75
2022/06/12 06:09:30;;;;;;;31.93;22.63;;;;;;;34.85;48.36;101238.97;4991673;28;20425;-73
2022/06/12 06:11:56;;;;;;;27.43;22.37;;;;;;;34.89;48.02;101245.44;4991387;28;20441;-74
2022/06/12 06:14:22;;;;;;;30.63;20.13;;;;;;;34.73;48.44;101242.78;4991214;28;20500;-73
2022/06/12 06:16:48;;;;;;;26.50;18.10;;;;;;;34.66;48.34;101244.97;4991965;28;20520;-71
2022/06/12 06:19:15;;;;;;;24.93;18.93;;;;;;;34.78;48.04;101238.47;4991767;28;20505;-73
2022/06/12 06:21:42;;;;;;;25.47;19.10;;;;;;;34.82;47.92;101243.03;4991539;28;20416;-72
2022/06/12 06:24:10;;;;;;;26.83;17.80;;;;;;;34.76;48.32;101252.22;4990927;28;20540;-72
2022/06/12 06:26:38;;;;;;;21.10;15.97;;;;;;;34.53;48.54;101255.53;4993684;28;20806;-70
2022/06/12 06:29:07;;;;;;;23.03;17.87;;;;;;;34.53;48.35;101258.22;5001802;28;21294;-71
2022/06/12 06:31:36;;;;;;;28.17;17.87;;;;;;;34.58;48.69;101267.09;4981055;28;20447;-73
2022/06/12 06:34:05;;;;;;;26.80;19.33;;;;;;;34.68;48.25;101261.69;5001667;28;20876;-71
2022/06/12 06:36:34;;;;;;;25.40;18.37;;;;;;;34.71;48.43;101269.22;4985507;28;20452;-68
2022/06/12 06:39:01;;;;;;;28.37;20.20;;;;;;;34.76;48.34;101273.78;5021000;22;20492;-69
2022/06/12 06:41:30;;;;;;;20.23;17.40;;;;;;;34.61;48.19;101282.69;5048426;28;20953;-69
2022/06/12 06:46:43;;;;;;;28.67;15.60;;;;;;;34.54;48.39;101289.47;5042511;28;20985;-69
2022/06/12 06:49:12;;;;;;;25.63;17.00;;;;;;;34.59;48.36;101284.88;5039571;28;20946;-70
2022/06/12 06:51:40;;;;;;;20.47;17.13;;;;;;;34.63;48.34;101291.34;5040095;28;20430;-70
2022/06/12 06:54:07;;;;;;;21.80;16.97;;;;;;;34.58;48.70;101290.53;5042089;28;20418;-70
2022/06/12 06:56:34;;;;;;;24.87;18.57;;;;;;;34.59;48.27;101302.94;5042317;28;20435;-70
2022/06/12 06:59:00;;;;;;;20.50;14.87;;;;;;;34.54;48.20;101302.94;5045257;28;20472;-71
2022/06/12 07:01:28;;;;;;;24.10;14.07;;;;;;;34.51;48.59;101316.97;5044483;28;20450;-70
2022/06/12 07:03:54;;;;;;;25.20;16.10;;;;;;;34.72;48.07;101329.31;5034730;28;20525;-69
2022/06/12 07:06:21;;;;;;;22.67;17.90;;;;;;;34.71;48.25;101338.47;5032687;28;20466;-70
2022/06/12 07:08:48;;;;;;;22.10;16.70;;;;;;;34.81;48.46;101351.13;5030353;28;20501;-72
2022/06/12 07:11:14;;;;;;;30.37;20.90;;;;;;;35.06;48.00;101350.28;5030166;28;20419;-70
2022/06/12 07:13:42;;;;;;;39.90;24.90;;;;;;;35.15;47.18;101362.09;5035107;28;20544;-70
2022/06/12 07:16:09;;;;;;;27.53;22.57;;;;;;;35.10;47.51;101356.72;5036906;28;20428;-69
2022/06/12 07:18:38;;;;;;;27.13;21.70;;;;;;;35.17;46.95;101362.63;5014432;28;20462;-72
2022/06/12 07:21:05;;;;;;;28.23;22.80;;;;;;;34.92;48.10;101366.19;5030848;28;20442;-70
2022/06/12 07:23:32;;;;;;;27.97;17.50;;;;;;;34.85;48.22;101377.25;5030517;28;20990;-70
2022/06/12 07:26:04;;;;;;;26.43;18.00;;;;;;;35.05;47.59;101379.13;5017131;28;20420;-70
2022/06/12 07:28:31;;;;;;;31.07;20.40;;;;;;;35.08;47.56;101383.16;5042374;28;20423;-70
2022/06/12 07:30:57;;;;;;;26.17;17.33;;;;;;;34.89;48.17;101375.63;5047655;28;20423;-71
2022/06/12 07:33:23;;;;;;;36.50;23.33;;;;;;;34.72;48.43;101384.00;5048672;28;20435;-72
2022/06/12 07:35:50;;;;;;;39.77;25.97;;;;;;;34.79;48.20;101383.72;5046744;28;20871;-71
2022/06/12 07:38:25;;;;;;;32.17;20.77;;;;;;;34.64;48.39;101381.88;5041848;28;20434;-83
2022/06/12 07:40:58;;;;;;;20.67;16.23;;;;;;;34.76;48.70;101376.19;5034920;28;20473;-73
2022/06/12 07:43:26;;;;;;;25.30;17.60;;;;;;;34.88;47.80;101382.09;5050068;28;21041;-75
2022/06/12 07:45:53;;;;;;;27.10;15.13;;;;;;;34.92;47.69;101385.88;5050253;28;20421;-73
2022/06/12 07:48:22;;;;;;;22.03;17.97;;;;;;;34.73;48.29;101382.13;5050427;28;20526;-74
2022/06/12 07:50:49;;;;;;;24.03;15.60;;;;;;;34.70;48.16;101379.97;5032813;28;20416;-71
2022/06/12 07:53:17;;;;;;;21.97;15.00;;;;;;;34.52;48.67;101380.53;5053588;28;20419;-71
2022/06/12 07:55:44;;;;;;;18.63;14.27;;;;;;;34.61;48.41;101382.38;5044662;28;20453;-72
2022/06/12 07:58:10;;;;;;;28.00;19.10;;;;;;;34.67;48.31;101381.31;5042594;28;20408;-74
2022/06/12 08:00:38;;;;;;;29.97;22.63;;;;;;;34.76;48.37;101378.09;5033889;28;20447;-78
2022/06/12 08:03:05;;;;;;;42.53;26.40;;;;;;;34.96;48.07;101381.56;5033743;28;20459;-71
2022/06/12 08:05:32;;;;;;;34.77;23.87;;;;;;;34.92;47.91;101382.34;5033619;28;20427;-70
2022/06/12 08:07:59;;;;;;;28.30;26.00;;;;;;;34.79;48.03;101381.03;5033350;28;20462;-74
2022/06/12 08:10:25;;;;;;;31.00;23.60;;;;;;;34.95;48.36;101390.75;5039339;28;20427;-74
2022/06/12 08:12:54;;;;;;;29.40;22.77;;;;;;;35.00;48.28;101388.03;5043976;28;20422;-74
2022/06/12 08:15:25;;;;;;;29.20;17.60;;;;;;;34.95;48.38;101390.75;5039938;28;20451;-74
2022/06/12 08:17:51;;;;;;;24.20;17.57;;;;;;;35.16;47.78;101401.47;5041680;28;20415;-73
2022/06/12 08:20:30;;;;;;;20.17;16.97;;;;;;;35.24;48.35;101400.94;5044000;28;20941;-74
2022/06/12 08:23:02;;;;;;;28.90;18.67;;;;;;;35.41;47.13;101400.56;5053835;28;20446;-74
2022/06/12 08:25:31;;;;;;;21.80;16.27;;;;;;;35.10;47.93;101395.28;5052900;28;20492;-73
2022/06/12 08:27:57;;;;;;;28.60;15.70;;;;;;;35.02;48.11;101395.03;5054405;28;20441;-74
2022/06/12 08:30:23;;;;;;;26.47;16.53;;;;;;;35.04;47.88;101395.56;5052883;28;20450;-74
2022/06/12 08:32:53;;;;;;;29.10;17.27;;;;;;;35.03;47.67;101392.06;5052859;28;20786;-73
2022/06/12 08:35:26;;;;;;;23.40;14.87;;;;;;;35.04;47.92;101390.19;5053491;28;20450;-75
2022/06/12 08:37:52;;;;;;;18.20;13.47;;;;;;;35.19;47.98;101396.34;5052781;28;20813;-77
2022/06/12 08:40:36;;;;;;;23.50;14.20;;;;;;;35.23;47.86;101400.09;5052639;28;20471;-73
2022/06/12 08:43:08;;;;;;;21.37;16.70;;;;;;;35.31;47.62;101393.34;5048662;28;20871;-73
2022/06/12 08:45:42;;;;;;;19.70;14.50;;;;;;;35.40;47.60;101391.69;5035437;28;20522;-75
2022/06/12 08:48:16;;;;;;;23.70;18.10;;;;;;;35.37;47.46;101397.63;5032855;28;20412;-75
2022/06/12 08:51:11;;;;;;;18.67;15.40;;;;;;;35.41;47.72;101398.69;5032919;28;20535;-77
2022/06/12 08:53:45;;;;;;;36.17;21.63;;;;;;;35.45;47.48;101407.06;5031936;28;20501;-76
2022/06/12 08:56:17;;;;;;;22.07;17.80;;;;;;;35.50;47.75;101401.66;5033890;28;20427;-73
2022/06/12 08:59:06;;;;;;;25.87;22.17;;;;;;;35.57;47.56;101398.66;5033000;28;20453;-73
2022/06/12 09:01:35;;;;;;;35.70;26.57;;;;;;;35.67;47.25;101398.63;5032894;28;20466;-71
2022/06/12 09:04:01;;;;;;;29.70;18.63;;;;;;;35.81;47.17;101394.22;5032466;28;20463;-73
2022/06/12 09:06:45;;;;;;;31.97;23.47;;;;;;;35.70;47.36;101389.97;5032602;28;20497;-74
2022/06/12 09:09:19;;;;;;;26.97;20.77;;;;;;;35.69;46.98;101382.97;5032512;28;20475;-75
2022/06/12 09:11:51;;;;;;;29.50;20.73;;;;;;;35.66;47.43;101376.19;5032704;28;20426;-75
2022/06/12 09:14:29;;;;;;;28.30;21.50;;;;;;;35.74;46.78;101386.44;5032304;28;20518;-73
2022/06/12 09:17:23;;;;;;;34.10;21.00;;;;;;;35.88;46.77;101393.91;5032416;28;20416;-73
2022/06/12 09:20:20;;;;;;;25.83;22.30;;;;;;;35.86;47.02;101388.81;5032476;28;20429;-73
2022/06/12 09:22:55;;;;;;;37.40;25.93;;;;;;;35.93;47.43;101392.03;5032288;28;20475;-75
2022/06/12 09:25:53;;;;;;;38.90;25.37;;;;;;;35.97;46.81;101395.78;5037220;28;20508;-73
2022/06/12 09:28:31;;;;;;;34.57;25.77;;;;;;;36.13;46.40;101398.38;5032393;28;20420;-73
2022/06/12 09:31:18;;;;;;;34.30;25.00;;;;;;;36.27;47.00;101391.25;5033579;28;20431;-73
2022/06/12 09:34:04;;;;;;;34.10;24.30;;;;;;;36.37;46.34;101391.16;5048986;28;20442;-73
2022/06/12 09:36:51;;;;;;;36.30;24.37;;;;;;;36.21;46.15;101384.25;5048760;28;20414;-73
2022/06/12 09:39:33;;;;;;;33.47;24.13;;;;;;;36.29;45.98;101384.47;5049698;28;20872;-73
2022/06/12 09:42:22;;;;;;;34.27;24.37;;;;;;;36.42;45.36;101379.56;5051739;28;20411;-73
2022/06/12 09:45:24;;;;;;;30.90;25.30;;;;;;;36.41;46.10;101373.34;5051871;28;20500;-74
2022/06/12 09:48:01;;;;;;;37.07;25.93;;;;;;;36.56;45.43;101372.38;5051433;28;20477;-73
2022/06/12 09:50:36;;;;;;;39.73;27.30;;;;;;;36.56;45.53;101359.69;5051926;28;20422;-73
2022/06/12 09:53:20;;;;;;;30.90;25.03;;;;;;;36.53;46.20;101351.34;5053364;28;20395;-73
2022/06/12 09:55:57;;;;;;;28.30;23.57;;;;;;;36.51;45.53;101359.72;5048107;28;20458;-73
2022/06/12 09:58:27;;;;;;;29.07;21.47;;;;;;;36.44;45.83;101355.75;5049816;28;20517;-73
2022/06/12 10:01:21;;;;;;;36.10;26.10;;;;;;;36.50;46.16;101355.41;5051558;28;20509;-73
2022/06/12 10:04:01;;;;;;;47.13;24.77;;;;;;;36.68;45.88;101344.97;5051035;28;20462;-75
2022/06/12 10:06:33;;;;;;;35.27;24.10;;;;;;;36.66;45.56;101333.66;5051294;28;20949;-73
2022/06/12 10:09:10;;;;;;;37.03;24.33;;;;;;;36.74;45.83;101343.84;5050934;28;20465;-73
2022/06/12 10:11:46;;;;;;;32.77;23.17;;;;;;;36.85;45.86;101353.47;5051356;28;20874;-73
2022/06/12 10:14:23;;;;;;;37.67;25.10;;;;;;;36.95;45.53;101345.25;5051013;28;20996;-74
2022/06/12 10:17:14;;;;;;;41.80;23.57;;;;;;;36.96;45.49;101346.06;5051151;28;20430;-74
2022/06/12 10:20:05;;;;;;;38.00;21.47;;;;;;;36.99;45.64;101345.50;5046035;28;20434;-73
2022/06/12 10:22:37;;;;;;;24.90;18.43;;;;;;;37.03;45.26;101351.94;5051212;28;20457;-73
2022/06/12 10:25:06;;;;;;;24.97;18.30;;;;;;;37.01;44.92;101354.09;5049032;28;20451;-73
2022/06/12 10:27:46;;;;;;;28.90;17.50;;;;;;;37.03;44.74;101343.81;5039375;28;20916;-73
2022/06/12 10:30:27;;;;;;;32.63;17.07;;;;;;;36.98;45.12;101341.19;5039311;28;20803;-73
2022/06/12 10:32:56;;;;;;;26.60;17.10;;;;;;;37.06;44.90;101340.53;5044757;28;20473;-73
2022/06/12 10:35:24;;;;;;;22.80;16.87;;;;;;;37.07;44.47;101332.13;5040337;28;20423;-73
2022/06/12 10:37:51;;;;;;;20.43;14.43;;;;;;;37.07;44.12;101332.13;5041054;28;20434;-73
2022/06/12 10:40:21;;;;;;;27.70;19.10;;;;;;;37.14;44.69;101337.22;5042049;28;20478;-73
2022/06/12 10:42:53;;;;;;;34.83;19.03;;;;;;;37.09;45.24;101343.47;5041345;28;20481;-73
2022/06/12 10:45:23;;;;;;;25.40;16.63;;;;;;;37.06;44.66;101345.94;5040505;28;20514;-73
2022/06/12 10:47:51;;;;;;;24.63;15.47;;;;;;;36.95;44.58;101345.25;5044976;28;20935;-73
2022/06/12 10:50:25;;;;;;;22.97;18.40;;;;;;;37.01;45.42;101346.00;5040492;28;20414;-73
2022/06/12 10:52:51;;;;;;;23.00;17.30;;;;;;;37.10;44.96;101350.50;5039897;28;20450;-73
2022/06/12 10:55:27;;;;;;;23.50;14.83;;;;;;;37.10;44.59;101342.38;5037493;28;20436;-72
2022/06/12 10:58:17;;;;;;;20.63;12.87;;;;;;;37.12;44.40;101339.38;5040153;28;20521;-73
2022/06/12 11:00:46;;;;;;;22.57;15.03;;;;;;;37.12;44.29;101347.50;5040709;28;20427;-73
2022/06/12 11:03:35;;;;;;;18.80;11.73;;;;;;;36.88;44.81;101342.09;5040450;28;21001;-73
2022/06/12 11:06:11;;;;;;;33.43;14.47;;;;;;;36.91;45.25;101338.81;5039891;28;20439;-75
2022/06/12 11:08:58;;;;;;;22.07;15.67;;;;;;;37.02;45.43;101326.78;5040863;28;20430;-74
2022/06/12 11:11:52;;;;;;;19.30;12.80;;;;;;;36.95;45.48;101322.81;5038614;28;20419;-74
2022/06/12 11:14:55;;;;;;;23.20;13.87;;;;;;;36.84;44.61;101322.91;5038349;28;20426;-75
2022/06/12 11:17:47;;;;;;;15.27;11.50;;;;;;;36.95;45.18;101309.28;5044865;28;20450;-72
2022/06/12 11:20:32;;;;;;;13.77;10.90;;;;;;;37.04;44.88;101315.69;5039847;28;20427;-72
2022/06/12 11:23:10;;;;;;;15.10;11.70;;;;;;;37.00;45.04;101317.34;5040215;28;20474;-75
2022/06/12 11:25:42;;;;;;;22.60;11.87;;;;;;;37.05;44.93;101312.69;5042440;28;20429;-71
2022/06/12 11:28:20;;;;;;;32.17;15.33;;;;;;;37.19;44.83;101314.69;5043700;28;20831;-72
2022/06/12 11:31:23;;;;;;;19.40;12.17;;;;;;;37.25;45.05;101308.91;5034459;28;20907;-72
2022/06/12 11:34:20;;;;;;;19.03;12.20;;;;;;;37.32;45.06;101317.50;5034232;28;20439;-72
2022/06/12 11:37:23;;;;;;;20.07;11.40;;;;;;;37.35;45.35;101305.31;5034290;28;20453;-73
2022/06/12 11:40:26;;;;;;;15.90;10.00;;;;;;;37.33;44.42;101307.47;5044503;28;20989;-73
2022/06/12 11:43:12;;;;;;;19.37;9.50;;;;;;;37.32;44.30;101312.09;5041719;28;20450;-74
2022/06/12 11:46:08;;;;;;;20.00;11.00;;;;;;;37.29;44.40;101309.94;5035217;28;20423;-73
2022/06/12 11:49:02;;;;;;;21.00;11.63;;;;;;;37.33;44.21;101310.19;5044743;28;20434;-74
2022/06/12 11:51:43;;;;;;;18.40;11.00;;;;;;;37.37;44.21;101312.03;5034281;28;20423;-72
2022/06/12 11:54:25;;;;;;;17.87;11.93;;;;;;;37.37;44.51;101305.81;5041019;28;20457;-73